Time;durP1;ratioP1;P1;durP2;ratioP2;P2;SDS_P1;SDS_P2;PMS_P1;PMS_P2;Temp;Humidity;BMP_temperature;BMP_pressure;BME280_temperature;BME280_humidity;BME280_pressure;Samples;Min_cycle;Max_cycle;Signal;HPM_P1;HPM_P2
2023/05/30 00:01:20;;;;;;;3.87;2.77;;;;;;;;;;5036222;28;20181;-75
2023/05/30 00:04:24;;;;;;;4.23;3.07;;;;;;;;;;5036252;28;20185;-75
2023/05/30 00:07:28;;;;;;;4.37;2.97;;;;;;;;;;5035915;28;20200;-75
2023/05/30 00:10:32;;;;;;;3.93;2.70;;;;;;;;;;5036399;28;20193;-74
2023/05/30 00:13:36;;;;;;;4.17;2.70;;;;;;;;;;5035998;28;20216;-75
2023/05/30 00:16:41;;;;;;;3.93;2.30;;;;;;;;;;5035997;28;20173;-75
2023/05/30 00:19:45;;;;;;;6.00;2.60;;;;;;;;;;5035172;28;20173;-75
2023/05/30 00:22:51;;;;;;;5.67;2.73;;;;;;;;;;5034862;28;20213;-75
2023/05/30 00:25:56;;;;;;;5.27;2.60;;;;;;;;;;5034939;28;20201;-75
2023/05/30 00:28:59;;;;;;;4.10;2.57;;;;;;;;;;5035750;28;20173;-75
2023/05/30 00:32:04;;;;;;;3.30;2.20;;;;;;;;;;5034879;28;20181;-75
2023/05/30 00:35:08;;;;;;;4.70;2.50;;;;;;;;;;5035700;28;20189;-74
2023/05/30 00:38:13;;;;;;;3.53;2.20;;;;;;;;;;5034708;28;20177;-74
2023/05/30 00:41:17;;;;;;;4.93;2.43;;;;;;;;;;5034782;28;20172;-75
2023/05/30 00:44:21;;;;;;;3.60;2.30;;;;;;;;;;5034478;28;20177;-75
2023/05/30 00:47:25;;;;;;;4.83;2.90;;;;;;;;;;5034644;28;20558;-75
2023/05/30 00:50:30;;;;;;;4.93;2.43;;;;;;;;;;5034646;28;20189;-75
2023/05/30 00:53:35;;;;;;;4.53;2.83;;;;;;;;;;5034522;28;20221;-75
2023/05/30 00:56:40;;;;;;;6.80;2.17;;;;;;;;;;5034752;28;20180;-75
2023/05/30 00:59:44;;;;;;;7.33;2.30;;;;;;;;;;5034927;28;20185;-75
2023/05/30 01:02:48;;;;;;;6.37;2.60;;;;;;;;;;5022624;28;20224;-75
2023/05/30 01:05:53;;;;;;;6.23;3.30;;;;;;;;;;5033963;28;20623;-75
2023/05/30 01:08:59;;;;;;;5.00;2.30;;;;;;;;;;5033856;28;20208;-75
2023/05/30 01:12:56;;;;;;;6.40;2.57;;;;;;;;;;5034343;28;20537;-75
2023/05/30 01:16:16;;;;;;;7.03;2.63;;;;;;;;;;5011747;28;20208;-75
2023/05/30 01:19:45;;;;;;;6.33;2.70;;;;;;;;;;5035027;28;20620;-75
2023/05/30 01:23:05;;;;;;;5.10;2.40;;;;;;;;;;5034016;28;20683;-75
2023/05/30 01:26:34;;;;;;;5.90;2.07;;;;;;;;;;5033712;28;20204;-74
2023/05/30 01:29:41;;;;;;;4.37;2.63;;;;;;;;;;5034685;28;20184;-75
2023/05/30 01:32:46;;;;;;;7.20;2.77;;;;;;;;;;5034633;28;20553;-74
2023/05/30 01:35:50;;;;;;;5.60;2.60;;;;;;;;;;5034241;28;20181;-75
2023/05/30 01:38:54;;;;;;;4.43;2.40;;;;;;;;;;5033396;28;20177;-74
2023/05/30 01:42:25;;;;;;;3.53;2.57;;;;;;;;;;5033225;28;20177;-75
2023/05/30 01:45:53;;;;;;;3.83;2.80;;;;;;;;;;5022496;28;20181;-75
2023/05/30 01:48:57;;;;;;;5.07;2.63;;;;;;;;;;5022108;28;20204;-75
2023/05/30 01:52:12;;;;;;;6.13;3.17;;;;;;;;;;5033310;28;20184;-75
2023/05/30 01:55:18;;;;;;;6.03;2.93;;;;;;;;;;5034063;28;20185;-75
2023/05/30 01:58:23;;;;;;;4.97;2.90;;;;;;;;;;5033303;28;20177;-75
2023/05/30 02:01:29;;;;;;;3.30;2.57;;;;;;;;;;5033494;28;20180;-75
2023/05/30 02:04:33;;;;;;;5.37;2.53;;;;;;;;;;5034253;28;20181;-75
2023/05/30 02:07:37;;;;;;;10.03;2.77;;;;;;;;;;5021975;28;20200;-75
2023/05/30 02:10:41;;;;;;;4.20;2.80;;;;;;;;;;5033135;28;20184;-75
2023/05/30 02:13:46;;;;;;;4.90;2.53;;;;;;;;;;5032899;28;20220;-75
2023/05/30 02:16:51;;;;;;;4.00;2.93;;;;;;;;;;5009633;28;20200;-75
2023/05/30 02:19:55;;;;;;;5.70;2.87;;;;;;;;;;5021387;28;20193;-74
2023/05/30 02:22:59;;;;;;;7.67;3.20;;;;;;;;;;5033661;28;20224;-75
2023/05/30 02:26:04;;;;;;;5.43;2.60;;;;;;;;;;5010241;28;20204;-75
2023/05/30 02:29:10;;;;;;;4.57;2.90;;;;;;;;;;5032997;28;20204;-75
2023/05/30 02:32:14;;;;;;;3.87;2.60;;;;;;;;;;5032512;28;20217;-75
2023/05/30 02:35:18;;;;;;;5.73;3.10;;;;;;;;;;5021700;28;20184;-75
2023/05/30 02:38:23;;;;;;;7.63;3.23;;;;;;;;;;5033184;28;20620;-75
2023/05/30 02:41:27;;;;;;;4.13;3.47;;;;;;;;;;5032925;28;20181;-75
2023/05/30 02:44:31;;;;;;;6.57;3.07;;;;;;;;;;5032636;28;20189;-75
2023/05/30 02:47:35;;;;;;;4.80;2.77;;;;;;;;;;5032339;28;20228;-75
2023/05/30 02:50:40;;;;;;;6.00;3.10;;;;;;;;;;5020927;28;20200;-75
2023/05/30 02:53:51;;;;;;;3.57;2.70;;;;;;;;;;5032158;28;20220;-75
2023/05/30 02:57:01;;;;;;;7.57;3.40;;;;;;;;;;5022204;28;20184;-74
2023/05/30 03:00:26;;;;;;;4.17;3.10;;;;;;;;;;5033278;28;20193;-75
2023/05/30 03:03:44;;;;;;;5.10;2.83;;;;;;;;;;5032971;28;20220;-75
2023/05/30 03:06:59;;;;;;;4.53;2.73;;;;;;;;;;5032383;28;20189;-75
2023/05/30 03:10:07;;;;;;;5.73;3.37;;;;;;;;;;5032349;28;20659;-75
2023/05/30 03:13:11;;;;;;;5.40;3.23;;;;;;;;;;5032051;28;20216;-75
2023/05/30 03:16:15;;;;;;;6.77;3.20;;;;;;;;;;5021066;28;20181;-75
2023/05/30 03:19:20;;;;;;;5.27;3.23;;;;;;;;;;5032533;28;20632;-75
2023/05/30 03:22:24;;;;;;;5.93;3.30;;;;;;;;;;5032078;28;20224;-75
2023/05/30 03:25:28;;;;;;;9.73;3.30;;;;;;;;;;5032913;28;20177;-75
2023/05/30 03:28:33;;;;;;;4.50;3.30;;;;;;;;;;5022110;28;20675;-74
2023/05/30 03:31:50;;;;;;;6.23;2.97;;;;;;;;;;5035695;28;20193;-74
2023/05/30 03:34:54;;;;;;;6.43;3.17;;;;;;;;;;5036501;28;20189;-75
2023/05/30 03:38:03;;;;;;;7.13;3.67;;;;;;;;;;5035821;28;20185;-75
2023/05/30 03:41:07;;;;;;;7.40;3.23;;;;;;;;;;5013429;28;20185;-75
2023/05/30 03:44:12;;;;;;;5.93;3.50;;;;;;;;;;5035793;28;20525;-75
2023/05/30 03:47:17;;;;;;;5.70;3.60;;;;;;;;;;5035755;28;20177;-74
2023/05/30 03:50:21;;;;;;;20.13;3.87;;;;;;;;;;5035795;28;20168;-74
2023/05/30 03:53:26;;;;;;;12.53;3.70;;;;;;;;;;5036432;28;20212;-74
2023/05/30 03:56:30;;;;;;;10.17;3.63;;;;;;;;;;5024550;28;20184;-74
2023/05/30 03:59:34;;;;;;;15.30;3.70;;;;;;;;;;5036361;28;20181;-74
2023/05/30 04:02:39;;;;;;;5.17;3.10;;;;;;;;;;5035155;28;20216;-75
2023/05/30 04:05:43;;;;;;;8.37;3.50;;;;;;;;;;5035471;28;20180;-75
2023/05/30 04:08:47;;;;;;;5.53;3.40;;;;;;;;;;5012477;28;20671;-75
2023/05/30 04:11:53;;;;;;;6.80;3.23;;;;;;;;;;5035326;28;20173;-75
2023/05/30 04:14:57;;;;;;;4.47;3.23;;;;;;;;;;5035074;28;20181;-75
2023/05/30 04:18:01;;;;;;;7.93;3.70;;;;;;;;;;5036021;28;20176;-75
2023/05/30 04:21:07;;;;;;;4.60;3.20;;;;;;;;;;5035197;28;20177;-74
2023/05/30 04:24:12;;;;;;;5.63;2.97;;;;;;;;;;5035777;28;20196;-74
2023/05/30 04:27:17;;;;;;;6.60;3.63;;;;;;;;;;5057606;22;20228;-85
2023/05/30 04:30:22;;;;;;;4.70;3.40;;;;;;;;;;5012779;28;20184;-85
2023/05/30 04:33:48;;;;;;;6.10;3.70;;;;;;;;;;5012903;28;20520;-85
2023/05/30 04:36:56;;;;;;;5.77;3.80;;;;;;;;;;5012728;28;20212;-85
2023/05/30 04:40:05;;;;;;;8.30;3.93;;;;;;;;;;5012215;28;20177;-85
2023/05/30 04:43:09;;;;;;;7.17;3.97;;;;;;;;;;5012415;28;20196;-85
2023/05/30 04:46:28;;;;;;;9.10;3.73;;;;;;;;;;5012686;28;20181;-85
2023/05/30 04:49:32;;;;;;;7.17;3.47;;;;;;;;;;5011378;28;20220;-85
2023/05/30 04:52:42;;;;;;;5.47;3.70;;;;;;;;;;5009156;28;20196;-85
2023/05/30 04:55:46;;;;;;;9.43;3.53;;;;;;;;;;5001399;28;20193;-85
2023/05/30 04:58:54;;;;;;;5.97;3.40;;;;;;;;;;5002013;28;20172;-85
2023/05/30 05:01:58;;;;;;;8.70;3.83;;;;;;;;;;4990641;28;20200;-85
2023/05/30 05:05:05;;;;;;;13.43;3.77;;;;;;;;;;5012427;28;20177;-85
2023/05/30 05:08:10;;;;;;;5.47;3.27;;;;;;;;;;5001069;28;20568;-85
2023/05/30 05:11:16;;;;;;;9.47;3.67;;;;;;;;;;5002792;28;20197;-84
2023/05/30 05:14:22;;;;;;;6.80;3.50;;;;;;;;;;5003682;28;20173;-84
2023/05/30 05:17:32;;;;;;;6.17;3.13;;;;;;;;;;5029487;28;20224;-84
2023/05/30 05:20:38;;;;;;;4.87;3.53;;;;;;;;;;5004818;28;20173;-84
2023/05/30 05:23:43;;;;;;;5.30;3.47;;;;;;;;;;5026165;28;20192;-84
2023/05/30 05:26:48;;;;;;;9.97;4.00;;;;;;;;;;5013800;28;20224;-83
2023/05/30 05:29:53;;;;;;;5.90;3.13;;;;;;;;;;5024854;28;20208;-84
2023/05/30 05:33:03;;;;;;;11.60;3.73;;;;;;;;;;5027818;28;20181;-84
2023/05/30 05:36:10;;;;;;;7.10;3.93;;;;;;;;;;5020809;28;20181;-84
2023/05/30 05:47:05;;;;;;;5.77;3.63;;;;;;;;;;5043596;28;20216;-84
2023/05/30 05:50:22;;;;;;;6.70;3.47;;;;;;;;;;5019154;28;20221;-84
2023/05/30 05:53:41;;;;;;;4.70;3.20;;;;;;;;;;5007179;28;20561;-84
2023/05/30 06:00:51;;;;;;;37.97;7.03;;;;;;;;;;5041486;28;20181;-83
2023/05/30 06:04:01;;;;;;;16.93;3.80;;;;;;;;;;5017011;28;20177;-83
2023/05/30 06:07:11;;;;;;;6.97;3.50;;;;;;;;;;5018227;28;20224;-83
2023/05/30 06:10:19;;;;;;;7.13;3.17;;;;;;;;;;5014935;28;20209;-83
2023/05/30 06:13:26;;;;;;;10.00;3.20;;;;;;;;;;5005433;28;20608;-83
2023/05/30 06:16:32;;;;;;;4.90;3.47;;;;;;;;;;5015052;28;20287;-83
2023/05/30 06:19:37;;;;;;;12.60;3.80;;;;;;;;;;5024652;28;20192;-83
2023/05/30 06:22:41;;;;;;;10.43;2.80;;;;;;;;;;5024618;28;20181;-83
2023/05/30 06:25:45;;;;;;;7.67;3.67;;;;;;;;;;5013802;28;20624;-83
2023/05/30 06:28:52;;;;;;;5.90;3.27;;;;;;;;;;5035616;28;20205;-83
2023/05/30 06:31:56;;;;;;;4.77;3.20;;;;;;;;;;5011859;28;20189;-83
2023/05/30 06:35:00;;;;;;;4.27;2.90;;;;;;;;;;5011925;28;20184;-83
2023/05/30 06:38:04;;;;;;;61.47;6.93;;;;;;;;;;5023122;28;20216;-83
2023/05/30 06:41:08;;;;;;;8.10;3.80;;;;;;;;;;5022945;28;20172;-83
2023/05/30 06:44:12;;;;;;;17.40;6.77;;;;;;;;;;5034553;28;20181;-83
2023/05/30 06:47:16;;;;;;;5.47;3.50;;;;;;;;;;5022275;28;20217;-83
2023/05/30 06:50:21;;;;;;;6.30;3.00;;;;;;;;;;5011873;28;20212;-83
2023/05/30 06:53:25;;;;;;;22.17;4.23;;;;;;;;;;5010677;28;20192;-83
2023/05/30 06:56:30;;;;;;;8.90;3.70;;;;;;;;;;5022496;28;20216;-83
2023/05/30 06:59:34;;;;;;;5.47;3.50;;;;;;;;;;5022524;28;20173;-83
2023/05/30 07:02:39;;;;;;;6.73;3.50;;;;;;;;;;5034143;28;20197;-83
2023/05/30 07:05:44;;;;;;;9.57;3.43;;;;;;;;;;5014978;28;20196;-83
2023/05/30 07:08:48;;;;;;;4.97;3.03;;;;;;;;;;5026434;28;20173;-83
2023/05/30 07:11:52;;;;;;;6.80;3.20;;;;;;;;;;5026416;28;20516;-83
2023/05/30 07:14:56;;;;;;;7.10;3.57;;;;;;;;;;5026165;28;20184;-83
2023/05/30 07:18:01;;;;;;;34.10;4.70;;;;;;;;;;5038008;28;20216;-83
2023/05/30 07:21:07;;;;;;;28.50;5.23;;;;;;;;;;5014870;28;20177;-83
2023/05/30 07:24:11;;;;;;;7.13;3.40;;;;;;;;;;5025888;28;20181;-83
2023/05/30 07:27:15;;;;;;;5.53;3.13;;;;;;;;;;5014704;28;20232;-83
2023/05/30 07:30:20;;;;;;;6.10;3.67;;;;;;;;;;5003834;28;20220;-84
2023/05/30 07:33:24;;;;;;;5.40;3.50;;;;;;;;;;5014147;28;20205;-83
2023/05/30 07:36:28;;;;;;;5.70;2.90;;;;;;;;;;5025409;28;20221;-83
2023/05/30 07:39:32;;;;;;;5.90;3.07;;;;;;;;;;5014612;28;20172;-83
2023/05/30 07:42:37;;;;;;;6.37;2.93;;;;;;;;;;5025667;28;20529;-83
2023/05/30 07:45:41;;;;;;;6.60;3.10;;;;;;;;;;5025287;28;20182;-83
2023/05/30 07:48:45;;;;;;;7.07;3.00;;;;;;;;;;5025237;28;20182;-83
2023/05/30 07:51:49;;;;;;;5.17;3.17;;;;;;;;;;5014242;28;20187;-83
2023/05/30 07:54:53;;;;;;;7.47;3.60;;;;;;;;;;5024746;28;20199;-83
2023/05/30 07:57:58;;;;;;;33.87;5.37;;;;;;;;;;5013662;28;20208;-83
2023/05/30 08:01:02;;;;;;;4.03;3.00;;;;;;;;;;5037574;28;20172;-83
2023/05/30 08:04:06;;;;;;;8.57;2.90;;;;;;;;;;5025014;28;20186;-84
2023/05/30 08:07:10;;;;;;;21.92;5.00;;;;;;;;;;5024702;28;20217;-84
2023/05/30 08:10:14;;;;;;;40.92;5.80;;;;;;;;;;5013839;28;20204;-84
2023/05/30 08:13:19;;;;;;;5.85;3.47;;;;;;;;;;5024761;28;20199;-84
2023/05/30 08:16:23;;;;;;;4.82;3.30;;;;;;;;;;5023567;28;20563;-84
2023/05/30 08:19:30;;;;;;;4.72;3.15;;;;;;;;;;5013452;28;20176;-84
2023/05/30 08:22:34;;;;;;;5.38;3.00;;;;;;;;;;5024666;28;20648;-83
2023/05/30 08:25:42;;;;;;;4.72;3.25;;;;;;;;;;5013300;28;20180;-83
2023/05/30 08:28:46;;;;;;;7.55;3.33;;;;;;;;;;5024266;28;20202;-84
2023/05/30 08:31:50;;;;;;;7.00;2.90;;;;;;;;;;5013173;28;20174;-83
2023/05/30 08:34:54;;;;;;;4.18;2.88;;;;;;;;;;5025542;28;20183;-83
2023/05/30 08:37:59;;;;;;;5.22;3.10;;;;;;;;;;5013272;28;20213;-84
2023/05/30 08:41:03;;;;;;;5.32;3.00;;;;;;;;;;5024763;28;20177;-84
2023/05/30 08:44:07;;;;;;;6.60;3.03;;;;;;;;;;5013200;28;20183;-84
2023/05/30 08:47:16;;;;;;;9.13;2.83;;;;;;;;;;5036527;28;20218;-84
2023/05/30 08:50:21;;;;;;;3.50;2.75;;;;;;;;;;5024259;28;20218;-83
2023/05/30 08:53:31;;;;;;;11.05;2.85;;;;;;;;;;5001559;28;20180;-84
2023/05/30 08:56:39;;;;;;;6.50;3.00;;;;;;;;;;5024193;28;20217;-84
2023/05/30 08:59:43;;;;;;;5.10;2.80;;;;;;;;;;5023528;28;20193;-84
2023/05/30 09:02:49;;;;;;;14.05;3.28;;;;;;;;;;5024167;28;20181;-84
2023/05/30 09:05:53;;;;;;;6.38;2.55;;;;;;;;;;5023708;28;20175;-84
2023/05/30 09:09:02;;;;;;;5.72;2.45;;;;;;;;;;5023986;28;20181;-84
2023/05/30 09:12:08;;;;;;;6.32;3.17;;;;;;;;;;5012817;28;20176;-84
2023/05/30 09:15:13;;;;;;;6.15;2.75;;;;;;;;;;5012660;28;20187;-84
2023/05/30 09:18:17;;;;;;;12.10;3.60;;;;;;;;;;5012651;28;20209;-83
2023/05/30 09:21:22;;;;;;;7.38;2.55;;;;;;;;;;5023501;28;20201;-84
2023/05/30 09:25:03;;;;;;;11.65;3.35;;;;;;;;;;5012337;28;20185;-84
2023/05/30 09:28:09;;;;;;;8.30;2.97;;;;;;;;;;5022960;28;20221;-84
2023/05/30 09:31:15;;;;;;;4.75;2.65;;;;;;;;;;5011824;28;20640;-84
2023/05/30 09:34:20;;;;;;;5.32;2.60;;;;;;;;;;5012065;28;20185;-84
2023/05/30 09:37:24;;;;;;;4.38;2.78;;;;;;;;;;5023273;28;20216;-84
2023/05/30 09:40:30;;;;;;;6.68;2.90;;;;;;;;;;5011669;28;20228;-84
2023/05/30 09:43:36;;;;;;;18.63;3.53;;;;;;;;;;5012544;28;20177;-84
2023/05/30 09:46:41;;;;;;;5.90;2.90;;;;;;;;;;5012953;28;20220;-84
2023/05/30 09:49:45;;;;;;;7.40;2.58;;;;;;;;;;5012289;28;20173;-84
2023/05/30 09:52:56;;;;;;;3.92;2.80;;;;;;;;;;5022989;28;20181;-84
2023/05/30 09:56:04;;;;;;;5.95;2.92;;;;;;;;;;5023465;28;20181;-84
2023/05/30 09:59:13;;;;;;;5.63;2.60;;;;;;;;;;5035761;28;20189;-83
2023/05/30 10:02:23;;;;;;;3.55;2.75;;;;;;;;;;5023903;28;20181;-84
2023/05/30 10:05:29;;;;;;;6.70;2.67;;;;;;;;;;5011882;28;20521;-84
2023/05/30 10:08:33;;;;;;;5.20;2.55;;;;;;;;;;5022707;28;20522;-83
2023/05/30 10:11:42;;;;;;;3.78;2.70;;;;;;;;;;5000425;28;20616;-83
2023/05/30 10:14:47;;;;;;;3.83;2.60;;;;;;;;;;5022502;28;20182;-83
2023/05/30 10:18:13;;;;;;;9.25;2.90;;;;;;;;;;5010961;28;20216;-86
2023/05/30 10:21:21;;;;;;;8.13;2.80;;;;;;;;;;5010904;28;20213;-86
2023/05/30 10:24:26;;;;;;;4.10;2.72;;;;;;;;;;5011928;28;20178;-86
2023/05/30 10:27:47;;;;;;;5.95;2.60;;;;;;;;;;5025907;23;20237;-88
2023/05/30 10:31:45;;;;;;;5.65;3.17;;;;;;;;;;4980503;28;20174;-87
2023/05/30 10:34:59;;;;;;;4.40;2.38;;;;;;;;;;4991605;28;20181;-87
2023/05/30 10:38:06;;;;;;;5.00;2.50;;;;;;;;;;4990862;28;20226;-88
2023/05/30 10:41:38;;;;;;;4.13;2.70;;;;;;;;;;5003264;28;20210;-80
2023/05/30 10:44:54;;;;;;;5.20;2.65;;;;;;;;;;5003631;28;20755;-83
2023/05/30 10:48:04;;;;;;;3.85;2.72;;;;;;;;;;4992823;28;20213;-83
2023/05/30 10:51:08;;;;;;;5.28;2.42;;;;;;;;;;4993127;28;20182;-83
2023/05/30 10:54:13;;;;;;;5.75;2.55;;;;;;;;;;5004620;28;20182;-84
2023/05/30 10:57:27;;;;;;;4.18;2.33;;;;;;;;;;4992538;28;20225;-83
2023/05/30 11:00:31;;;;;;;4.50;2.35;;;;;;;;;;5003722;28;20567;-83
2023/05/30 11:03:35;;;;;;;4.35;2.65;;;;;;;;;;5003807;28;20184;-83
2023/05/30 11:06:46;;;;;;;5.68;2.90;;;;;;;;;;4992381;28;20186;-83
2023/05/30 11:10:14;;;;;;;19.75;3.35;;;;;;;;;;4992864;28;20180;-83
2023/05/30 11:13:20;;;;;;;3.70;2.70;;;;;;;;;;5003778;28;20189;-82
2023/05/30 11:16:24;;;;;;;7.18;2.63;;;;;;;;;;4992172;28;20187;-81
2023/05/30 11:19:49;;;;;;;6.10;2.78;;;;;;;;;;5015264;28;20184;-82
2023/05/30 11:23:02;;;;;;;4.57;2.75;;;;;;;;;;4991804;28;20188;-82
2023/05/30 11:26:06;;;;;;;5.32;2.80;;;;;;;;;;4992354;28;20183;-82
2023/05/30 11:29:32;;;;;;;4.78;3.00;;;;;;;;;;5003288;28;20188;-82
2023/05/30 11:32:36;;;;;;;4.72;2.78;;;;;;;;;;5014416;28;20191;-82
2023/05/30 11:35:46;;;;;;;10.93;3.08;;;;;;;;;;5003449;28;20181;-82
2023/05/30 11:38:52;;;;;;;7.53;3.17;;;;;;;;;;4981668;28;20186;-82
2023/05/30 11:41:57;;;;;;;7.15;2.90;;;;;;;;;;4992387;28;20209;-82
2023/05/30 11:45:01;;;;;;;7.90;2.65;;;;;;;;;;4992225;28;20185;-82
2023/05/30 11:48:07;;;;;;;5.30;3.15;;;;;;;;;;4991772;28;20216;-82
2023/05/30 11:51:12;;;;;;;6.60;2.90;;;;;;;;;;5007000;28;20185;-82
2023/05/30 11:54:17;;;;;;;11.02;2.97;;;;;;;;;;5018109;28;20176;-82
2023/05/30 11:57:21;;;;;;;5.18;2.90;;;;;;;;;;5006871;28;20217;-82
2023/05/30 12:00:25;;;;;;;4.65;3.08;;;;;;;;;;4995689;28;20221;-81
2023/05/30 12:03:31;;;;;;;11.57;3.20;;;;;;;;;;4995594;28;20192;-81
2023/05/30 12:06:35;;;;;;;9.13;3.13;;;;;;;;;;5017579;28;20201;-82
2023/05/30 12:09:41;;;;;;;4.95;3.20;;;;;;;;;;4996129;28;20197;-82
2023/05/30 12:12:45;;;;;;;8.98;2.97;;;;;;;;;;4995435;28;20178;-81
2023/05/30 12:15:51;;;;;;;6.00;3.22;;;;;;;;;;5017624;28;20178;-82
2023/05/30 12:18:57;;;;;;;6.97;3.00;;;;;;;;;;4995178;28;20205;-81
2023/05/30 12:22:04;;;;;;;4.03;2.70;;;;;;;;;;5006097;28;20221;-81
2023/05/30 12:25:09;;;;;;;8.80;3.13;;;;;;;;;;5006985;28;20190;-82
2023/05/30 12:28:13;;;;;;;5.15;2.83;;;;;;;;;;5006097;28;20707;-81
2023/05/30 12:31:21;;;;;;;12.10;2.90;;;;;;;;;;5006322;28;20664;-81
2023/05/30 12:34:47;;;;;;;4.20;2.80;;;;;;;;;;4995859;28;20189;-81
2023/05/30 12:37:56;;;;;;;8.32;3.30;;;;;;;;;;4995485;28;20695;-82
2023/05/30 12:41:00;;;;;;;15.32;3.40;;;;;;;;;;5006935;28;20660;-81
2023/05/30 12:44:03;;;;;;;4.05;2.42;;;;;;;;;;4995435;28;20194;-81
2023/05/30 12:47:08;;;;;;;7.20;3.05;;;;;;;;;;4994952;28;20683;-81
2023/05/30 12:50:12;;;;;;;4.70;3.00;;;;;;;;;;5006713;28;20543;-81
2023/05/30 12:53:16;;;;;;;8.43;3.13;;;;;;;;;;4993740;28;20178;-82
2023/05/30 12:56:23;;;;;;;4.32;2.67;;;;;;;;;;5016457;28;20182;-81
2023/05/30 12:59:29;;;;;;;5.95;2.90;;;;;;;;;;5005187;28;20178;-84
2023/05/30 13:02:35;;;;;;;9.90;2.92;;;;;;;;;;5016661;28;20210;-83
2023/05/30 13:05:40;;;;;;;6.30;2.83;;;;;;;;;;5005545;28;20217;-89
2023/05/30 13:09:16;;;;;;;7.05;2.72;;;;;;;;;;5003490;28;20221;-89
2023/05/30 13:13:31;;;;;;;5.38;3.08;;;;;;;;;;4993220;28;20202;-89
2023/05/30 13:17:44;;;;;;;5.10;3.00;;;;;;;;;;5003680;28;20206;-89
2023/05/30 13:22:05;;;;;;;5.53;2.88;;;;;;;;;;5006532;28;20201;-89
2023/05/30 13:25:30;;;;;;;5.38;2.95;;;;;;;;;;4985910;28;20300;-89
2023/05/30 13:28:34;;;;;;;7.28;3.05;;;;;;;;;;5003285;28;20218;-88
2023/05/30 13:31:38;;;;;;;5.53;3.00;;;;;;;;;;4992012;28;20522;-88
2023/05/30 13:34:43;;;;;;;5.13;2.83;;;;;;;;;;5003446;28;20183;-88
2023/05/30 13:37:47;;;;;;;5.28;3.33;;;;;;;;;;4991783;28;20217;-88
2023/05/30 13:40:51;;;;;;;11.98;3.55;;;;;;;;;;4992092;28;20223;-88
2023/05/30 13:43:57;;;;;;;5.45;3.08;;;;;;;;;;4981035;28;20185;-88
2023/05/30 13:47:01;;;;;;;4.10;3.13;;;;;;;;;;5002900;28;20219;-89
2023/05/30 13:50:06;;;;;;;6.10;2.90;;;;;;;;;;5002712;28;20205;-89
2023/05/30 13:53:10;;;;;;;6.65;2.78;;;;;;;;;;4991794;28;20177;-89
2023/05/30 13:56:17;;;;;;;5.20;2.92;;;;;;;;;;4992105;28;20185;-88
2023/05/30 13:59:21;;;;;;;17.38;3.72;;;;;;;;;;5002965;28;20184;-88
2023/05/30 14:02:26;;;;;;;6.68;2.97;;;;;;;;;;5002967;28;20539;-88
2023/05/30 14:05:30;;;;;;;8.65;3.15;;;;;;;;;;4991862;28;20197;-88
2023/05/30 14:08:34;;;;;;;9.82;3.40;;;;;;;;;;4980467;28;20212;-89
2023/05/30 14:11:38;;;;;;;25.38;5.07;;;;;;;;;;5013955;28;20177;-88
2023/05/30 14:14:42;;;;;;;12.73;3.97;;;;;;;;;;4991360;28;20198;-89
2023/05/30 14:17:47;;;;;;;10.60;3.05;;;;;;;;;;4991264;28;20221;-88
2023/05/30 14:20:51;;;;;;;7.90;3.38;;;;;;;;;;4991461;28;20529;-88
2023/05/30 14:23:55;;;;;;;7.60;3.15;;;;;;;;;;4991190;28;20185;-88
2023/05/30 14:26:59;;;;;;;5.43;3.60;;;;;;;;;;4991128;28;20227;-88
2023/05/30 14:30:04;;;;;;;7.43;3.42;;;;;;;;;;5002642;28;20180;-88
2023/05/30 14:33:08;;;;;;;4.10;3.10;;;;;;;;;;4991425;28;20179;-88
2023/05/30 14:36:13;;;;;;;10.05;3.80;;;;;;;;;;5014996;28;20179;-88
2023/05/30 14:39:17;;;;;;;12.55;3.00;;;;;;;;;;4980473;28;20199;-87
2023/05/30 14:42:21;;;;;;;7.80;3.45;;;;;;;;;;5002331;28;20679;-87
2023/05/30 14:45:25;;;;;;;4.78;3.55;;;;;;;;;;5001972;28;20182;-87
2023/05/30 14:48:30;;;;;;;7.93;3.42;;;;;;;;;;4990937;28;20271;-87
2023/05/30 14:51:34;;;;;;;8.52;3.13;;;;;;;;;;5002401;28;20177;-87
2023/05/30 14:54:38;;;;;;;5.45;2.85;;;;;;;;;;5002227;28;20188;-87
2023/05/30 14:57:42;;;;;;;6.78;3.42;;;;;;;;;;4990991;28;20217;-87
2023/05/30 15:00:46;;;;;;;4.35;3.00;;;;;;;;;;4991040;28;20186;-87
2023/05/30 15:03:51;;;;;;;8.40;3.00;;;;;;;;;;4979929;28;20196;-87
2023/05/30 15:06:55;;;;;;;5.50;2.50;;;;;;;;;;4990562;28;20223;-87
2023/05/30 15:09:59;;;;;;;7.32;3.25;;;;;;;;;;4991041;28;20527;-87
2023/05/30 15:13:04;;;;;;;5.53;3.88;;;;;;;;;;4990906;28;20179;-86
2023/05/30 15:16:13;;;;;;;7.85;3.63;;;;;;;;;;4990420;28;20183;-87
2023/05/30 15:19:20;;;;;;;6.78;3.08;;;;;;;;;;5002165;28;20204;-87
2023/05/30 15:22:24;;;;;;;3.40;2.65;;;;;;;;;;4990372;28;20232;-87
2023/05/30 15:25:28;;;;;;;6.15;3.22;;;;;;;;;;5004766;28;20186;-87
2023/05/30 15:28:33;;;;;;;6.80;3.47;;;;;;;;;;4994271;28;20698;-87
2023/05/30 15:31:37;;;;;;;4.55;3.17;;;;;;;;;;4994531;28;20181;-86
2023/05/30 15:34:42;;;;;;;7.45;3.08;;;;;;;;;;4994243;28;20180;-87
2023/05/30 15:37:46;;;;;;;6.07;3.40;;;;;;;;;;4982975;28;20217;-87
2023/05/30 15:40:50;;;;;;;8.20;3.33;;;;;;;;;;5005603;28;20188;-87
2023/05/30 15:44:01;;;;;;;6.93;3.30;;;;;;;;;;4994586;28;20180;-87
2023/05/30 15:47:07;;;;;;;5.70;3.35;;;;;;;;;;4993510;28;20695;-86
2023/05/30 15:50:12;;;;;;;13.57;3.90;;;;;;;;;;4993509;28;20199;-87
2023/05/30 15:53:16;;;;;;;9.73;3.60;;;;;;;;;;5005089;28;20176;-87
2023/05/30 16:00:52;;;;;;;4.10;3.43;;;;;;;;;;5004876;28;20181;-86
2023/05/30 16:03:59;;;;;;;10.97;3.50;;;;;;;;;;4994335;28;20178;-85
2023/05/30 16:07:08;;;;;;;5.10;2.87;;;;;;;;;;4983042;28;20215;-87
2023/05/30 16:10:15;;;;;;;8.80;3.40;;;;;;;;;;4982675;28;20175;-87
2023/05/30 16:13:19;;;;;;;19.10;3.90;;;;;;;;;;4993462;28;20546;-85
2023/05/30 16:16:24;;;;;;;7.03;3.53;;;;;;;;;;5004885;28;20674;-84
2023/05/30 16:19:28;;;;;;;6.53;3.50;;;;;;;;;;4994893;28;20182;-84
2023/05/30 16:22:32;;;;;;;6.50;3.80;;;;;;;;;;5016281;28;20213;-84
2023/05/30 16:25:36;;;;;;;4.53;2.93;;;;;;;;;;5016797;28;20182;-85
2023/05/30 16:28:40;;;;;;;12.67;3.77;;;;;;;;;;4993850;28;20572;-84
2023/05/30 16:31:44;;;;;;;12.93;3.70;;;;;;;;;;4993497;28;20182;-84
2023/05/30 16:34:49;;;;;;;32.03;4.20;;;;;;;;;;5004337;28;20187;-84
2023/05/30 16:37:53;;;;;;;6.80;3.30;;;;;;;;;;4993216;28;20214;-84
2023/05/30 16:40:57;;;;;;;7.60;3.37;;;;;;;;;;5004030;28;20205;-85
2023/05/30 16:44:02;;;;;;;5.67;3.13;;;;;;;;;;5004161;28;20178;-85
2023/05/30 16:47:06;;;;;;;7.77;3.37;;;;;;;;;;5005417;28;20221;-85
2023/05/30 16:50:11;;;;;;;5.57;3.13;;;;;;;;;;5004848;28;20174;-85
2023/05/30 16:53:15;;;;;;;7.33;2.97;;;;;;;;;;4992762;28;20179;-85
2023/05/30 16:56:20;;;;;;;5.63;3.40;;;;;;;;;;4993183;28;20178;-84
2023/05/30 16:59:25;;;;;;;4.73;3.17;;;;;;;;;;5015584;28;20182;-84
2023/05/30 17:02:30;;;;;;;6.30;3.33;;;;;;;;;;4992972;28;20533;-84
2023/05/30 17:05:34;;;;;;;7.77;3.23;;;;;;;;;;4993255;28;20185;-84
2023/05/30 17:08:38;;;;;;;4.20;2.97;;;;;;;;;;5004235;28;20217;-84
2023/05/30 17:11:42;;;;;;;5.37;4.00;;;;;;;;;;5004269;28;20182;-84
2023/05/30 17:14:46;;;;;;;5.40;3.37;;;;;;;;;;4993028;28;20177;-84
2023/05/30 17:17:52;;;;;;;7.17;3.33;;;;;;;;;;5004425;28;20217;-84
2023/05/30 17:20:57;;;;;;;7.33;3.23;;;;;;;;;;5004163;28;20178;-84
2023/05/30 17:24:04;;;;;;;4.20;3.27;;;;;;;;;;5004027;28;20209;-84
2023/05/30 17:27:08;;;;;;;3.70;3.30;;;;;;;;;;5015668;28;20224;-84
2023/05/30 17:30:12;;;;;;;8.30;3.70;;;;;;;;;;5004104;28;20636;-84
2023/05/30 17:33:16;;;;;;;6.73;4.00;;;;;;;;;;5003835;28;20177;-84
2023/05/30 17:36:20;;;;;;;11.90;4.03;;;;;;;;;;5014959;28;20197;-85
2023/05/30 17:39:25;;;;;;;9.80;3.83;;;;;;;;;;4992545;28;20202;-85
2023/05/30 17:42:29;;;;;;;6.00;3.37;;;;;;;;;;5003285;28;20557;-85
2023/05/30 17:45:33;;;;;;;11.73;4.27;;;;;;;;;;4992038;28;20181;-85
2023/05/30 17:48:38;;;;;;;6.83;3.30;;;;;;;;;;4992626;28;20699;-85
2023/05/30 17:51:42;;;;;;;8.13;3.43;;;;;;;;;;5002801;28;20633;-84
2023/05/30 17:54:47;;;;;;;7.60;3.30;;;;;;;;;;5016340;28;20174;-85
2023/05/30 17:57:51;;;;;;;21.33;4.50;;;;;;;;;;4991876;28;20553;-84
2023/05/30 18:00:55;;;;;;;4.80;3.10;;;;;;;;;;5003272;28;20185;-85
2023/05/30 18:04:00;;;;;;;5.13;3.00;;;;;;;;;;4991293;28;20553;-85
2023/05/30 18:07:04;;;;;;;4.20;3.07;;;;;;;;;;4991525;28;20217;-85
2023/05/30 18:10:09;;;;;;;9.27;3.37;;;;;;;;;;4991820;28;20181;-85
2023/05/30 18:13:13;;;;;;;21.40;4.17;;;;;;;;;;4991675;28;20177;-85
2023/05/30 18:16:17;;;;;;;10.70;3.33;;;;;;;;;;4991307;28;20197;-85
2023/05/30 18:19:21;;;;;;;5.43;3.57;;;;;;;;;;4991555;28;20173;-85
2023/05/30 18:22:25;;;;;;;6.10;3.63;;;;;;;;;;5013569;28;20178;-84
2023/05/30 18:25:29;;;;;;;8.00;3.37;;;;;;;;;;4991342;28;20181;-84
2023/05/30 18:28:34;;;;;;;5.70;3.80;;;;;;;;;;5002168;28;20688;-85
2023/05/30 18:31:39;;;;;;;6.63;3.53;;;;;;;;;;5002421;28;20636;-85
2023/05/30 18:34:43;;;;;;;6.37;3.63;;;;;;;;;;4991428;28;20193;-86
2023/05/30 18:37:48;;;;;;;5.47;3.10;;;;;;;;;;5002180;28;20597;-85
2023/05/30 18:40:52;;;;;;;5.20;2.67;;;;;;;;;;5002275;28;20236;-85
2023/05/30 18:43:56;;;;;;;12.00;3.33;;;;;;;;;;4980119;28;20173;-85
2023/05/30 18:47:00;;;;;;;5.53;3.07;;;;;;;;;;5002154;28;20213;-85
2023/05/30 18:50:05;;;;;;;5.73;3.00;;;;;;;;;;4991494;28;20193;-85
2023/05/30 18:53:09;;;;;;;7.67;3.20;;;;;;;;;;4990802;28;20585;-85
2023/05/30 18:56:14;;;;;;;8.40;3.63;;;;;;;;;;4990952;28;20185;-85